CheckWX is a tool to help pilots better visualize weather data.  It is not intended as a substitute for an official pre-flight weather briefing.

12:21:23 UTC

KSRE METAR
Seminole Municipal Airport
Seminole, Oklahoma, USA
Current

26 mins ago

KSRE 221155Z AUTO 07006KT 1 1/2SM -UP OVC004 04/04 A3005 RMK AO2
Observed
Feb-22 @ 11:55 UTC
Wind
  • 070° at 6 KTS
Visibility
1 1/2 SM
Flight Rules
LIFR
Conditions
Unknown precipitation
Cloud Levels
  • Overcast at 400' AGL
Temperature
C / 39°F
Dewpoint
C / 39°F
Humidity
100%
Altimeter
30.05" Hg
Pressure
1017.62 hPa
Previous

46 mins ago

KSRE 221135Z AUTO 08005KT 3SM BR OVC005 05/04 A3005 RMK AO2
Observed
Feb-22 @ 11:35 UTC
Wind
  • 080° at 5 KTS
Visibility
3 SM
Flight Rules
IFR
Conditions
Mist
Cloud Levels
  • Overcast at 500' AGL
Temperature
C / 41°F
Dewpoint
C / 39°F
Humidity
93%
Altimeter
30.05" Hg
Pressure
1017.62 hPa
Previous

1 hour ago

KSRE 221115Z AUTO 07006KT 3SM BR OVC005 05/03 A3004 RMK AO2
Observed
Feb-22 @ 11:15 UTC
Wind
  • 070° at 6 KTS
Visibility
3 SM
Flight Rules
IFR
Conditions
Mist
Cloud Levels
  • Overcast at 500' AGL
Temperature
C / 41°F
Dewpoint
C / 37°F
Humidity
87%
Altimeter
30.04" Hg
Pressure
1017.32 hPa